Thursday, July 18, 2019, 9:18 AM EDT
Back to Local

KIPT, Williamsport-lycoming County

Location: Montoursville, PA, United States Lat: 41.25
Local Time: 9:18 AM EDT (13:18 GMT) Lon: -76.917
Time Zone: US/Eastern Elev: 528 ft

Show me the last for .
Show Decoded

2019-07-18 09:10 METAR KIPT 181310Z 00000KT 10SM SCT009 BKN013 OVC048 26/22 A2990 RMK AO2
                 T02560222 =
2019-07-18 08:54 METAR KIPT 181254Z 20003KT 10SM SCT011 SCT016 OVC048 24/22 A2990 RMK AO2 SLP123
                 T02440222 =
2019-07-18 08:47 METAR KIPT 181247Z 00000KT 10SM FEW009 SCT014 OVC048 24/22 A2991 RMK AO2
                 T02440222 =
2019-07-18 08:35 METAR KIPT 181235Z 00000KT 10SM FEW005 BKN016 OVC047 24/22 A2991 RMK AO2
                 T02440222 =
2019-07-18 07:54 METAR KIPT 181154Z 00000KT 10SM OVC007 23/22 A2991 RMK AO2 CIG 004V008 SLP124
                 70144 T02330222 10239 20228 53010 =
2019-07-18 07:16 METAR KIPT 181116Z 00000KT 9SM BKN006 OVC011 23/22 A2990 RMK AO2 T02280217 =
2019-07-18 07:04 METAR KIPT 181104Z 00000KT 10SM OVC010 23/22 A2989 RMK AO2 CIG 005V012 T02280217
                 =
2019-07-18 06:54 METAR KIPT 181054Z 00000KT 10SM OVC008 23/22 A2989 RMK AO2 CIG 008V011 SLP119
                 T02280217 =
2019-07-18 05:54 METAR KIPT 180954Z AUTO 00000KT 10SM OVC007 23/22 A2989 RMK AO2 SLP117 T02280217
                 $ =
2019-07-18 04:54 METAR KIPT 180854Z AUTO 35003KT 10SM OVC006 23/22 A2988 RMK AO2 SLP114 T02280217
                 53001 $ =
2019-07-18 03:54 METAR KIPT 180754Z AUTO 00000KT 10SM BKN006 OVC011 23/22 A2986 RMK AO2 CIG
                 006V009 SLP109 T02280217 $ =
2019-07-18 03:23 METAR KIPT 180723Z AUTO 00000KT 10SM FEW006 OVC011 23/22 A2987 RMK AO2 T02280217
                 $ =
2019-07-18 02:54 METAR KIPT 180654Z AUTO 00000KT 10SM OVC011 23/22 A2987 RMK AO2 SLP111 T02330217
                 $ =
2019-07-18 02:14 METAR KIPT 180614Z AUTO 00000KT 10SM BKN012 OVC018 23/22 A2988 RMK AO2 T02280217
                 $ =
2019-07-18 01:54 METAR KIPT 180554Z AUTO 09003KT 10SM BKN008 OVC018 23/22 A2987 RMK AO2 RAE0457
                 CIG 004V011 SLP112 P0000 60024 T02280217 10239 20228 58002 $ =
2019-07-18 01:39 METAR KIPT 180539Z AUTO 00000KT 10SM BKN008 OVC019 23/22 A2987 RMK AO2 RAE0457
                 CIG 004V013 P0000 T02280217 $ =
2019-07-18 01:34 METAR KIPT 180534Z AUTO 00000KT 10SM BKN010 OVC019 23/22 A2987 RMK AO2 RAE0457
                 P0000 T02280217 $ =
2019-07-18 00:54 METAR KIPT 180454Z AUTO 07003KT 8SM -RA BKN009 BKN014 OVC021 23/22 A2988 RMK AO2
                 RAB0356E30B45 CIG 006V012 SLP113 P0001 T02280217 403110217 $ =
2019-07-18 00:42 METAR KIPT 180442Z AUTO 12003KT 9SM FEW007 BKN014 OVC020 23/22 A2988 RMK AO2
                 RAB0356E30 P0000 T02280217 $ =
2019-07-17 23:54 METAR KIPT 180354Z AUTO 00000KT 10SM OVC024 23/22 A2988 RMK AO2 SLP115 T02330217
                 $ =
2019-07-17 23:16 METAR KIPT 180316Z AUTO 13005KT 10SM BKN015 OVC021 23/21 A2988 RMK AO2 T02330211
                 $ =
2019-07-17 22:54 METAR KIPT 180254Z AUTO 07007KT 10SM BKN011 OVC016 23/22 A2988 RMK AO2 SLP113
                 60023 T02330217 50004 $ =
2019-07-17 22:04 METAR KIPT 180204Z 00000KT 10SM BKN014 OVC032 23/22 A2988 RMK AO2 T02330217 $ =
2019-07-17 21:54 METAR KIPT 180154Z 05004KT 10SM BKN016 BKN031 OVC046 23/22 A2988 RMK AO2 RAE53
                 SLP115 P0013 T02330222 $ =
2019-07-17 21:20 METAR KIPT 180120Z 10003KT 10SM -RA FEW021 BKN038 OVC110 23/22 A2988 RMK AO2
                 P0009 T02280222 $ =
2019-07-17 21:05 METAR KIPT 180105Z 06003KT 3SM RA BR SCT021 BKN028 OVC037 23/22 A2988 RMK AO2
                 P0007 T02330222 $ =
2019-07-17 20:57 METAR KIPT 180057Z 07004KT 2 1/2SM +RA BR SCT022 OVC033 23/22 A2988 RMK AO2
                 P0002 T02330222 $ =
2019-07-17 20:54 METAR KIPT 180054Z 07003KT 3SM +RA BR FEW019 BKN024 OVC035 23/22 A2988 RMK AO2
                 SLP114 P0010 T02330222 $ =
2019-07-17 20:39 METAR KIPT 180039Z 08003KT 4SM RA BR BKN024 BKN028 OVC038 23/22 A2988 RMK AO2
                 P0003 T02330222 $ =
2019-07-17 19:54 METAR KIPT 172354Z 00000KT 10SM -RA FEW048 BKN060 OVC090 23/22 A2987 RMK AO2
                 RAB00E10B53 SLP110 P0000 60120 T02330222 10294 20228 56012 $ =
2019-07-17 18:54 METAR KIPT 172254Z 00000KT 10SM OVC065 24/22 A2987 RMK AO2 SLP112 T02390217 $ =
2019-07-17 17:54 METAR KIPT 172154Z 11003KT 10SM SCT005 BKN095 OVC110 23/22 A2987 RMK AO2 RAE52
                 SLP113 P0007 T02330222 $ =
2019-07-17 17:38 METAR KIPT 172138Z VRB04KT 10SM -RA FEW005 BKN095 OVC110 23/22 A2988 RMK AO2
                 P0007 T02280217 $ =
2019-07-17 16:54 METAR KIPT 172054Z 00000KT 4SM RA BR SCT055 BKN065 OVC080 23/22 A2990 RMK AO2
                 LTG DSNT E AND SE TSB1958E24 SLP123 TS MOVD NE P0064 60113 T02280217 52001 $ =
2019-07-17 16:45 METAR KIPT 172045Z 09004KT 9SM -RA FEW028 BKN075 OVC100 23/22 A2990 RMK AO2 LTG
                 DSNT E AND SE TSB1958E24 TS MOVD NE P0062 T02280217 $ =
2019-07-17 16:29 METAR KIPT 172029Z 08006KT 8SM VCTS -RA SCT024 BKN043 OVC120 23/22 A2991 RMK AO2
                 LTG DSNT E AND SE TSB1958E24 TS NE MOVG NE P0061 T02330217 $ =
2019-07-17 16:22 METAR KIPT 172022Z 09006KT 4SM -TSRA BR FEW012 BKN024 OVC043 23/22 A2990 RMK AO2
                 LTG DSNT E-S TSB1958 TS OHD MOVG NE P0061 T02330217 $ =
2019-07-17 16:18 METAR KIPT 172018Z 11005KT 2SM TSRA BR FEW012 BKN022 OVC039 23/22 A2991 RMK AO2
                 LTG DSNT E-S TSB1958 TS OHD MOVG NE P0058 T02330217 $ =
2019-07-17 16:09 METAR KIPT 172009Z 18010KT 2SM TSRA BR FEW011 SCT019 OVC041 23/22 A2993 RMK AO2
                 LTG DSNT SE AND S TSB1958 PRESRR TS OHD MOVG NE P0039 T02280217 $ =
2019-07-17 16:04 METAR KIPT 172004Z 25007KT 1/2SM TSRA SCT009 BKN024 OVC042 23/22 A2991 RMK AO2
                 LTG DSNT SE-SW TSB1958 TS S MOVG NE P0037 T02280217 $ =
2019-07-17 15:57 METAR KIPT 171957Z 28013KT 1/2SM VCTS RA FEW009 BKN042 OVC050 23/22 A2991 RMK
                 AO2 LTG DSNT SE-SW PRESRR TS S MOVG NE P0006 T02330217 $ =
2019-07-17 15:54 METAR KIPT 171954Z 28012KT 1SM VCTS RA FEW016 SCT036 BKN044 24/22 A2991 RMK AO2
                 LTG DSNT SE-SW RAB54 TSE03 SLP125 TS MOVD NE P0000 T02390217 $ =
2019-07-17 15:40 METAR KIPT 171940Z 32007KT 10SM SCT047 SCT060 BKN095 25/22 A2989 RMK AO2 LTG
                 DSNT NE AND S AND SW TSE03 TS MOVD NE T02500217 $ =
2019-07-17 15:09 METAR KIPT 171909Z 00000KT 10SM VCTS FEW100 25/22 A2990 RMK AO2 LTG DSNT NW-E
                 TSE03 TS NE MOVG NE T02500222 $ =
2019-07-17 14:54 METAR KIPT 171854Z 35006KT 10SM TS FEW014 SCT100 25/22 A2990 RMK AO2 WSHFT 1831
                 LTG DSNT NE AND SE AND W RAB15E46 TSB01E16B26 SLP121 TS N-NE MOV NE P0049
                 T02500217 $ =
2019-07-17 14:51 METAR KIPT 171851Z 34006KT 10SM TS FEW016 SCT060 SCT100 25/22 A2990 RMK AO2
                 WSHFT 1831 LTG DSNT NE AND SE AND W RAB15E46 TSB01E16B26 TS N-NE MOV NE P0049 $
                 =
2019-07-17 14:40 METAR KIPT 171840Z 16012KT 7SM -TSRA SCT035 24/22 A2991 RMK AO2 LTG DSNT SE
                 RAB15 TSB01E16B26 TS N-NE MOV NE P0049 T02390222 $ =
2019-07-17 14:34 METAR KIPT 171834Z 16012KT 1/4SM +TSRA FG OVC009 23/22 A2990 RMK AO2 LTG DSNT SE
                 RAB15 TSB01E16B26 TS SW MOV NE P0041 T02280217 $ =
2019-07-17 14:27 METAR KIPT 171827Z 16012KT 1 1/2SM +TSRA BR OVC009 24/22 A2993 RMK AO2 LTG DSNT
                 SE RAB15 TSB01E16B26 PRESRR TS SW MOV NE P0004 T02390217 $ =
2019-07-17 14:22 METAR KIPT 171822Z 16012KT 2SM VCTS RA OVC009 26/21 A2991 RMK AO2 RAB15 TSB01E16
                 TS SW MOV NE P0002 T02560211 $ =
2019-07-17 14:12 METAR KIPT 171812Z 16012KT 2SM TS HZ OVC009 28/21 A2989 RMK AO2 LTG DSNT SE
                 TSB01 TS SW MOV NE T02780211 $ =
2019-07-17 14:07 METAR KIPT 171807Z 15011KT 10SM TS SCT035 SCT049 BKN110 28/21 A2990 RMK AO2 LTG
                 DSNT SE TSB01 T02780211 =
2019-07-17 13:54 METAR KIPT 171754Z 13007KT 10SM VCTS FEW035 29/23 A2990 RMK AO2 SLP121 T02940233
                 10311 20228 58018 =
2019-07-17 12:54 METAR KIPT 171654Z 19005KT 10SM FEW029 SCT041 BKN070 29/22 A2993 RMK AO2 SLP129
                 T02890222 =
2019-07-17 11:54 METAR KIPT 171554Z 00000KT 10SM CLR 29/22 A2994 RMK AO2 SLP134 T02940217 =
2019-07-17 10:54 METAR KIPT 171454Z 15003KT 10SM CLR 28/22 A2996 RMK AO2 SLP140 T02780222 58006 =
2019-07-17 09:54 METAR KIPT 171354Z 13006KT 10SM FEW060 SCT075 26/22 A2997 RMK AO2 SLP144
                 T02560222 =

Support USWX by starting your Amazon purchase here.